createdAt,value
2019-05-17T00:00:50.082Z,977.194
2019-05-17T00:02:50.136Z,977.161
2019-05-17T00:04:50.569Z,977.122
2019-05-17T00:06:49.761Z,977.064
2019-05-17T00:08:49.772Z,977.045
2019-05-17T00:10:49.869Z,977.019
2019-05-17T00:12:49.904Z,976.992
2019-05-17T00:14:49.959Z,976.992
2019-05-17T00:16:50.175Z,976.949
2019-05-17T00:18:50.209Z,976.926
2019-05-17T00:20:50.285Z,976.910
2019-05-17T00:22:50.275Z,976.877
2019-05-17T00:24:50.305Z,976.855
2019-05-17T00:26:50.496Z,976.815
2019-05-17T00:28:50.487Z,976.800
2019-05-17T00:30:50.540Z,976.773
2019-05-17T00:32:50.534Z,976.747
2019-05-17T00:34:49.932Z,976.719
2019-05-17T00:36:50.098Z,976.705
2019-05-17T00:38:51.870Z,976.684
2019-05-17T00:40:49.945Z,976.673
2019-05-17T00:42:49.980Z,976.625
2019-05-17T00:44:49.955Z,976.607
2019-05-17T00:46:50.131Z,976.601
2019-05-17T00:48:50.071Z,976.587
2019-05-17T00:51:00.149Z,976.572
2019-05-17T00:52:50.198Z,976.539
2019-05-17T00:54:50.338Z,976.509
2019-05-17T00:56:50.465Z,976.492
2019-05-17T00:58:50.410Z,976.458
2019-05-17T01:00:50.499Z,976.458
2019-05-17T01:02:50.499Z,976.445
2019-05-17T01:04:49.820Z,976.415
2019-05-17T01:06:49.992Z,976.401
2019-05-17T01:09:04.258Z,976.373
2019-05-17T01:10:50.044Z,976.370
2019-05-17T01:12:50.051Z,976.372
2019-05-17T01:14:50.116Z,976.382
2019-05-17T01:16:50.287Z,976.394
2019-05-17T01:18:50.320Z,976.387
2019-05-17T01:20:50.419Z,976.387
2019-05-17T01:22:50.473Z,976.337
2019-05-17T01:24:50.528Z,976.334
2019-05-17T01:26:49.764Z,976.319
2019-05-17T01:28:49.802Z,976.295
2019-05-17T01:30:49.883Z,976.281
2019-05-17T01:32:49.860Z,976.285
2019-05-17T01:34:50.111Z,976.276
2019-05-17T01:36:50.289Z,976.263
2019-05-17T01:38:50.327Z,976.259
2019-05-17T01:40:50.320Z,976.257
2019-05-17T01:42:50.451Z,976.255
2019-05-17T01:44:50.525Z,976.247
2019-05-17T01:46:49.786Z,976.260
2019-05-17T01:48:49.876Z,976.271
2019-05-17T01:50:49.878Z,976.285
2019-05-17T01:52:49.875Z,976.281
2019-05-17T01:54:49.953Z,976.273
2019-05-17T01:56:50.079Z,976.267
2019-05-17T01:58:50.051Z,976.267
2019-05-17T02:00:50.082Z,976.264
2019-05-17T02:02:50.080Z,976.261
2019-05-17T02:04:50.407Z,976.261
2019-05-17T02:06:50.560Z,976.248
2019-05-17T02:08:50.330Z,976.240
2019-05-17T02:10:50.313Z,976.211
2019-05-17T02:12:50.351Z,976.167
2019-05-17T02:14:50.312Z,976.154
2019-05-17T02:16:50.556Z,976.155
2019-05-17T02:18:49.606Z,976.155
2019-05-17T02:20:49.624Z,976.150
2019-05-17T02:22:49.762Z,976.153
2019-05-17T02:24:49.798Z,976.154
2019-05-17T02:26:50.014Z,976.144
2019-05-17T02:28:52.226Z,976.161
2019-05-17T02:30:53.297Z,976.141
2019-05-17T02:32:54.422Z,976.146
2019-05-17T02:34:52.941Z,976.136
2019-05-17T02:36:53.741Z,976.129
2019-05-17T02:38:53.388Z,976.123
2019-05-17T02:40:53.964Z,976.115
2019-05-17T02:42:53.893Z,976.105
2019-05-17T02:44:53.374Z,976.124
2019-05-17T02:46:54.119Z,976.120
2019-05-17T02:48:54.140Z,976.137
2019-05-17T02:50:53.597Z,976.140
2019-05-17T02:52:53.136Z,976.159
2019-05-17T02:54:53.017Z,976.164
2019-05-17T02:56:53.641Z,976.163
2019-05-17T02:58:53.641Z,976.153
2019-05-17T03:00:53.673Z,976.159
2019-05-17T03:02:49.745Z,976.150
2019-05-17T03:04:52.882Z,976.150
2019-05-17T03:06:53.650Z,976.135
2019-05-17T03:08:52.780Z,976.133
2019-05-17T03:10:53.895Z,976.141
2019-05-17T03:12:53.318Z,976.117
2019-05-17T03:14:53.190Z,976.100
2019-05-17T03:16:53.983Z,976.062
2019-05-17T03:18:53.308Z,976.062
2019-05-17T03:20:52.986Z,976.049
2019-05-17T03:22:53.038Z,976.038
2019-05-17T03:24:53.571Z,976.038
2019-05-17T03:26:53.079Z,976.030
2019-05-17T03:28:54.173Z,976.044
2019-05-17T03:30:57.289Z,976.083
2019-05-17T03:32:57.254Z,976.096
2019-05-17T03:34:56.952Z,976.110
2019-05-17T03:36:57.276Z,976.100
2019-05-17T03:38:53.688Z,976.111
2019-05-17T03:41:19.872Z,976.120
2019-05-17T03:42:53.478Z,976.110
2019-05-17T03:44:53.326Z,976.106
2019-05-17T03:46:53.522Z,976.098
2019-05-17T03:48:53.487Z,976.097
2019-05-17T03:50:53.438Z,976.102
2019-05-17T03:52:53.906Z,976.110
2019-05-17T03:54:53.500Z,976.108
2019-05-17T03:56:49.651Z,976.102
2019-05-17T03:58:53.411Z,976.108
2019-05-17T04:00:53.859Z,976.100
2019-05-17T04:02:53.992Z,976.093
2019-05-17T04:04:53.395Z,976.083
2019-05-17T04:06:52.937Z,976.073
2019-05-17T04:08:53.022Z,976.068
2019-05-17T04:10:53.322Z,976.067
2019-05-17T04:12:53.406Z,976.073
2019-05-17T04:14:53.770Z,976.082
2019-05-17T04:16:53.870Z,976.072
2019-05-17T04:18:49.947Z,976.064
2019-05-17T04:20:53.183Z,976.083
2019-05-17T04:22:52.978Z,976.089
2019-05-17T04:24:52.850Z,976.085
2019-05-17T04:26:52.783Z,976.074
2019-05-17T04:28:53.672Z,976.072
2019-05-17T04:30:53.167Z,976.076
2019-05-17T04:32:53.072Z,976.096
2019-05-17T04:34:52.927Z,976.108
2019-05-17T04:36:52.569Z,976.105
2019-05-17T04:38:52.895Z,976.100
2019-05-17T04:40:49.908Z,976.117
2019-05-17T04:42:53.017Z,976.133
2019-05-17T04:44:53.123Z,976.133
2019-05-17T04:46:53.908Z,976.116
2019-05-17T04:48:53.874Z,976.121
2019-05-17T04:50:54.018Z,976.109
2019-05-17T04:52:54.109Z,976.114
2019-05-17T04:54:54.114Z,976.123
2019-05-17T04:56:53.603Z,976.137
2019-05-17T04:58:54.630Z,976.125
2019-05-17T05:00:49.729Z,976.133
2019-05-17T05:02:53.028Z,976.146
2019-05-17T05:04:53.749Z,976.134
2019-05-17T05:06:52.748Z,976.148
2019-05-17T05:08:53.159Z,976.157
2019-05-17T05:10:53.905Z,976.157
2019-05-17T05:12:52.881Z,976.170
2019-05-17T05:14:52.531Z,976.190
2019-05-17T05:16:49.683Z,976.186
2019-05-17T05:18:52.395Z,976.181
2019-05-17T05:20:53.016Z,976.172
2019-05-17T05:22:52.880Z,976.178
2019-05-17T05:24:51.983Z,976.183
2019-05-17T05:26:51.990Z,976.170
2019-05-17T05:28:53.078Z,976.119
2019-05-17T05:30:52.879Z,976.114
2019-05-17T05:32:52.383Z,976.116
2019-05-17T05:34:52.214Z,976.126
2019-05-17T05:36:52.337Z,976.126
2019-05-17T05:38:51.796Z,976.147
2019-05-17T05:40:52.409Z,976.154
2019-05-17T05:42:51.802Z,976.163
2019-05-17T05:44:53.066Z,976.155
2019-05-17T05:46:51.720Z,976.167
2019-05-17T05:48:50.234Z,976.184
2019-05-17T05:50:52.325Z,976.174
2019-05-17T05:52:52.591Z,976.202
2019-05-17T05:54:52.205Z,976.196
2019-05-17T05:56:52.671Z,976.179
2019-05-17T05:58:52.526Z,976.204
2019-05-17T06:00:53.462Z,976.208
2019-05-17T06:02:52.551Z,976.212
2019-05-17T06:04:52.071Z,976.213
2019-05-17T06:06:52.435Z,976.199
2019-05-17T06:08:52.358Z,976.196
2019-05-17T06:10:53.483Z,976.188
2019-05-17T06:12:51.988Z,976.195
2019-05-17T06:14:52.592Z,976.178
2019-05-17T06:16:52.286Z,976.172
2019-05-17T06:18:51.894Z,976.150
2019-05-17T06:20:52.661Z,976.136
2019-05-17T06:22:52.012Z,976.118
2019-05-17T06:24:52.294Z,976.091
2019-05-17T06:26:52.738Z,976.070
2019-05-17T06:28:52.038Z,976.063
2019-05-17T06:30:52.484Z,976.054
2019-05-17T06:32:52.023Z,976.029
2019-05-17T06:34:51.765Z,976.038
2019-05-17T06:36:49.945Z,976.033
2019-05-17T06:38:49.716Z,976.030
2019-05-17T06:40:52.577Z,976.021
2019-05-17T06:42:52.790Z,976.020
2019-05-17T06:44:52.467Z,976.030
2019-05-17T06:46:52.187Z,976.014
2019-05-17T06:48:50.191Z,976.007
2019-05-17T06:50:52.216Z,976.002
2019-05-17T06:52:50.204Z,976.004
2019-05-17T06:54:52.735Z,975.972
2019-05-17T06:56:49.842Z,975.968
2019-05-17T06:58:49.751Z,975.958
2019-05-17T07:00:50.036Z,975.951
2019-05-17T07:02:50.123Z,975.954
2019-05-17T07:04:51.035Z,975.966
2019-05-17T07:06:50.264Z,975.941
2019-05-17T07:08:50.302Z,975.936
2019-05-17T07:10:50.555Z,975.919
2019-05-17T07:13:01.843Z,975.932
2019-05-17T07:14:51.001Z,975.927
2019-05-17T07:16:50.309Z,975.907
2019-05-17T07:18:50.319Z,975.874
2019-05-17T07:20:50.544Z,975.860
2019-05-17T07:22:50.955Z,975.820
2019-05-17T07:24:50.558Z,975.814
2019-05-17T07:26:50.042Z,975.750
2019-05-17T07:28:50.348Z,975.750
2019-05-17T07:30:50.696Z,975.708
2019-05-17T07:32:50.086Z,975.686
2019-05-17T07:34:51.035Z,975.670
2019-05-17T07:36:50.593Z,975.644
2019-05-17T07:38:50.757Z,975.654
2019-05-17T07:40:50.474Z,975.654
2019-05-17T07:42:50.481Z,975.626
2019-05-17T07:44:50.418Z,975.620
2019-05-17T07:46:52.087Z,975.597
2019-05-17T07:48:50.097Z,975.570
2019-05-17T07:50:50.752Z,975.585
2019-05-17T07:52:50.334Z,975.550
2019-05-17T07:54:51.159Z,975.518
2019-05-17T07:56:50.804Z,975.479
2019-05-17T07:58:50.276Z,975.447
2019-05-17T08:00:51.779Z,975.417
2019-05-17T08:02:50.740Z,975.388
2019-05-17T08:04:50.472Z,975.374
2019-05-17T08:06:50.780Z,975.374
2019-05-17T08:08:50.513Z,975.366
2019-05-17T08:10:51.384Z,975.345
2019-05-17T08:12:50.390Z,975.352
2019-05-17T08:14:50.617Z,975.361
2019-05-17T08:16:50.431Z,975.297
2019-05-17T08:18:50.453Z,975.268
2019-05-17T08:20:50.564Z,975.243
2019-05-17T08:22:50.622Z,975.208
2019-05-17T08:24:50.581Z,975.158
2019-05-17T08:26:50.510Z,975.139
2019-05-17T08:28:50.232Z,975.116
2019-05-17T08:30:50.565Z,975.094
2019-05-17T08:32:50.812Z,975.087
2019-05-17T08:34:52.170Z,975.087
2019-05-17T08:36:50.149Z,975.077
2019-05-17T08:38:50.470Z,975.077
2019-05-17T08:40:51.291Z,975.065
2019-05-17T08:42:50.505Z,975.060
2019-05-17T08:44:50.594Z,975.031
2019-05-17T08:46:50.358Z,975.012
2019-05-17T08:48:50.315Z,974.982
2019-05-17T08:50:50.339Z,974.937
2019-05-17T08:52:50.407Z,974.914
2019-05-17T08:54:50.497Z,974.914
2019-05-17T08:56:50.614Z,974.908
2019-05-17T08:58:50.557Z,974.891
2019-05-17T09:00:50.856Z,974.850
2019-05-17T09:02:50.332Z,974.847
2019-05-17T09:04:50.086Z,974.836
2019-05-17T09:06:50.825Z,974.816
2019-05-17T09:08:50.335Z,974.827
2019-05-17T09:10:50.834Z,974.802
2019-05-17T09:12:50.500Z,974.812
2019-05-17T09:14:50.449Z,974.813
2019-05-17T09:16:50.750Z,974.748
2019-05-17T09:18:50.489Z,974.736
2019-05-17T09:20:50.498Z,974.717
2019-05-17T09:22:51.392Z,974.729
2019-05-17T09:24:50.413Z,974.724
2019-05-17T09:26:50.571Z,974.682
2019-05-17T09:28:50.477Z,974.646
2019-05-17T09:30:51.029Z,974.605
2019-05-17T09:32:50.603Z,974.627
2019-05-17T09:34:50.240Z,974.617
2019-05-17T09:36:50.340Z,974.616
2019-05-17T09:38:50.358Z,974.612
2019-05-17T09:40:50.833Z,974.616
2019-05-17T09:42:50.274Z,974.616
2019-05-17T09:44:50.250Z,974.602
2019-05-17T09:46:50.693Z,974.559
2019-05-17T09:48:50.844Z,974.537
2019-05-17T09:50:50.790Z,974.497
2019-05-17T09:52:49.851Z,974.441
2019-05-17T09:54:50.744Z,974.440
2019-05-17T09:56:50.054Z,974.439
2019-05-17T09:58:50.086Z,974.451
2019-05-17T10:00:50.119Z,974.448
2019-05-17T10:02:51.145Z,974.417
2019-05-17T10:04:50.570Z,974.414
2019-05-17T10:06:51.595Z,974.397
2019-05-17T10:08:49.856Z,974.391
2019-05-17T10:11:11.351Z,974.349
2019-05-17T10:12:50.246Z,974.333
2019-05-17T10:14:50.466Z,974.289
2019-05-17T10:16:49.725Z,974.293
2019-05-17T10:18:49.801Z,974.275
2019-05-17T10:20:50.918Z,974.275
2019-05-17T10:22:50.749Z,974.238
2019-05-17T10:24:49.746Z,974.218
2019-05-17T10:26:50.159Z,974.185
2019-05-17T10:28:51.902Z,974.178
2019-05-17T10:30:52.693Z,974.194
2019-05-17T10:32:50.929Z,974.145
2019-05-17T10:34:50.324Z,974.142
2019-05-17T10:36:50.942Z,974.085
2019-05-17T10:38:50.584Z,974.102
2019-05-17T10:40:50.576Z,974.114
2019-05-17T10:42:50.546Z,974.150
2019-05-17T10:44:54.936Z,974.135
2019-05-17T10:46:50.191Z,974.125
2019-05-17T10:48:50.410Z,974.132
2019-05-17T10:50:50.389Z,974.139
2019-05-17T10:52:50.384Z,974.132
2019-05-17T10:54:50.362Z,974.103
2019-05-17T10:56:50.565Z,974.034
2019-05-17T10:58:49.617Z,973.999
2019-05-17T11:00:50.447Z,973.953
2019-05-17T11:02:50.685Z,973.951
2019-05-17T11:04:50.898Z,973.936
2019-05-17T11:06:50.386Z,973.946
2019-05-17T11:08:50.503Z,973.952
2019-05-17T11:10:50.549Z,973.959
2019-05-17T11:12:49.651Z,973.991
2019-05-17T11:15:11.701Z,973.990
2019-05-17T11:16:50.099Z,973.945
2019-05-17T11:18:50.171Z,973.861
2019-05-17T11:20:50.263Z,973.834
2019-05-17T11:22:50.293Z,973.780
2019-05-17T11:24:50.361Z,973.781
2019-05-17T11:26:49.627Z,973.770
2019-05-17T11:28:49.660Z,973.750
2019-05-17T11:30:49.742Z,973.742
2019-05-17T11:32:49.682Z,973.753
2019-05-17T11:34:50.464Z,973.766
2019-05-17T11:36:50.623Z,973.741
2019-05-17T11:38:49.735Z,973.700
2019-05-17T11:40:50.381Z,973.660
2019-05-17T11:42:50.452Z,973.673
2019-05-17T11:44:50.517Z,973.732
2019-05-17T11:46:49.673Z,973.706
2019-05-17T11:48:49.788Z,973.690
2019-05-17T11:50:49.777Z,973.679
2019-05-17T11:52:49.814Z,973.691
2019-05-17T11:54:50.126Z,973.699
2019-05-17T11:56:49.861Z,973.696
2019-05-17T11:58:49.870Z,973.690
2019-05-17T12:00:50.364Z,973.623
2019-05-17T12:02:50.559Z,973.595
2019-05-17T12:04:50.303Z,973.589
2019-05-17T12:06:50.668Z,973.572
2019-05-17T12:08:50.328Z,973.569
2019-05-17T12:10:50.644Z,973.503
2019-05-17T12:12:49.927Z,973.484
2019-05-17T12:14:49.966Z,973.481
2019-05-17T12:16:50.246Z,973.440
2019-05-17T12:18:50.343Z,973.396
2019-05-17T12:20:50.460Z,973.336
2019-05-17T12:22:49.832Z,973.327
2019-05-17T12:24:50.731Z,973.357
2019-05-17T12:26:50.386Z,973.356
2019-05-17T12:28:49.896Z,973.382
2019-05-17T12:30:49.793Z,973.379
2019-05-17T12:32:49.808Z,973.373
2019-05-17T12:34:50.551Z,973.360
2019-05-17T12:36:49.810Z,973.312
2019-05-17T12:38:49.805Z,973.294
2019-05-17T12:40:49.888Z,973.257
2019-05-17T12:42:49.905Z,973.211
2019-05-17T12:44:50.108Z,973.173
2019-05-17T12:46:50.090Z,973.171
2019-05-17T12:48:50.502Z,973.139
2019-05-17T12:50:50.502Z,973.064
2019-05-17T12:52:49.615Z,973.039
2019-05-17T12:54:49.733Z,972.991
2019-05-17T12:56:49.836Z,972.982
2019-05-17T12:58:49.933Z,972.956
2019-05-17T13:00:49.904Z,972.959
2019-05-17T13:02:49.918Z,972.953
2019-05-17T13:04:50.269Z,972.909
2019-05-17T13:06:50.441Z,972.889
2019-05-17T13:08:50.421Z,972.892
2019-05-17T13:10:50.441Z,972.872
2019-05-17T13:12:50.445Z,972.835
2019-05-17T13:14:49.633Z,972.826
2019-05-17T13:16:49.778Z,972.798
2019-05-17T13:18:50.064Z,972.795
2019-05-17T13:20:50.186Z,972.801
2019-05-17T13:22:49.817Z,972.784
2019-05-17T13:24:50.289Z,972.799
2019-05-17T13:26:50.077Z,972.801
2019-05-17T13:28:50.240Z,972.798
2019-05-17T13:30:50.223Z,972.779
2019-05-17T13:32:50.261Z,972.780
2019-05-17T13:34:49.641Z,972.728
2019-05-17T13:36:49.989Z,972.671
2019-05-17T13:38:49.938Z,972.596
2019-05-17T13:40:49.953Z,972.588
2019-05-17T13:42:50.030Z,972.551
2019-05-17T13:44:50.552Z,972.600
2019-05-17T13:46:49.771Z,972.630
2019-05-17T13:48:49.785Z,972.640
2019-05-17T13:50:52.604Z,972.623
2019-05-17T13:52:50.114Z,972.542
2019-05-17T13:54:50.214Z,972.509
2019-05-17T13:56:50.518Z,972.509
2019-05-17T13:58:50.592Z,972.520
2019-05-17T14:00:49.755Z,972.481
2019-05-17T14:02:50.430Z,972.460
2019-05-17T14:04:49.885Z,972.463
2019-05-17T14:06:50.116Z,972.446
2019-05-17T14:08:50.382Z,972.375
2019-05-17T14:10:49.924Z,972.376
2019-05-17T14:12:49.931Z,972.375
2019-05-17T14:14:49.911Z,972.364
2019-05-17T14:16:50.185Z,972.421
2019-05-17T14:18:50.215Z,972.392
2019-05-17T14:20:50.302Z,972.391
2019-05-17T14:22:50.431Z,972.386
2019-05-17T14:24:50.469Z,972.427
2019-05-17T14:26:49.806Z,972.415
2019-05-17T14:28:49.750Z,972.403
2019-05-17T14:30:49.850Z,972.399
2019-05-17T14:32:49.920Z,972.374
2019-05-17T14:34:50.244Z,972.374
2019-05-17T14:36:50.378Z,972.390
2019-05-17T14:38:50.595Z,972.443
2019-05-17T14:41:08.422Z,972.453
2019-05-17T14:42:50.052Z,972.444
2019-05-17T14:44:50.119Z,972.434
2019-05-17T14:46:50.195Z,972.445
2019-05-17T14:48:50.286Z,972.445
2019-05-17T14:50:50.551Z,972.399
2019-05-17T14:52:50.536Z,972.391
2019-05-17T14:54:49.968Z,972.355
2019-05-17T14:56:50.005Z,972.346
2019-05-17T14:58:49.766Z,972.340
2019-05-17T15:00:50.655Z,972.340
2019-05-17T15:02:49.796Z,972.291
2019-05-17T15:04:50.160Z,972.261
2019-05-17T15:06:50.388Z,972.244
2019-05-17T15:08:50.454Z,972.212
2019-05-17T15:10:50.461Z,972.222
2019-05-17T15:12:50.446Z,972.204
2019-05-17T15:14:50.472Z,972.162
2019-05-17T15:16:49.843Z,972.160
2019-05-17T15:18:50.495Z,972.160
2019-05-17T15:20:49.821Z,972.127
2019-05-17T15:22:49.953Z,972.101
2019-05-17T15:24:49.987Z,972.077
2019-05-17T15:27:06.349Z,972.048
2019-05-17T15:28:50.421Z,972.067
2019-05-17T15:30:50.509Z,972.077
2019-05-17T15:32:50.530Z,972.041
2019-05-17T15:34:49.850Z,972.057
2019-05-17T15:36:50.056Z,972.033
2019-05-17T15:38:49.724Z,972.029
2019-05-17T15:40:49.710Z,971.999
2019-05-17T15:42:49.696Z,971.962
2019-05-17T15:44:49.750Z,971.956
2019-05-17T15:46:50.044Z,971.921
2019-05-17T15:48:50.134Z,971.925
2019-05-17T15:50:50.161Z,971.904
2019-05-17T15:52:50.280Z,971.837
2019-05-17T15:54:50.272Z,971.809
2019-05-17T15:56:50.513Z,971.808
2019-05-17T15:58:50.578Z,971.820
2019-05-17T16:00:50.604Z,971.799
2019-05-17T16:02:50.588Z,971.783
2019-05-17T16:04:49.959Z,971.775
2019-05-17T16:06:50.213Z,971.793
2019-05-17T16:08:50.454Z,971.789
2019-05-17T16:10:50.430Z,971.761
2019-05-17T16:13:03.662Z,971.757
2019-05-17T16:14:50.539Z,971.744
2019-05-17T16:16:49.700Z,971.738
2019-05-17T16:18:49.783Z,971.712
2019-05-17T16:20:49.803Z,971.714
2019-05-17T16:22:49.802Z,971.735
2019-05-17T16:24:49.898Z,971.747
2019-05-17T16:26:50.108Z,971.747
2019-05-17T16:28:50.110Z,971.778
2019-05-17T16:30:50.166Z,971.756
2019-05-17T16:32:50.318Z,971.765
2019-05-17T16:34:49.777Z,971.775
2019-05-17T16:36:49.917Z,971.796
2019-05-17T16:38:50.071Z,971.773
2019-05-17T16:40:50.147Z,971.771
2019-05-17T16:42:50.197Z,971.770
2019-05-17T16:44:50.203Z,971.766
2019-05-17T16:46:50.374Z,971.754
2019-05-17T16:48:50.486Z,971.734
2019-05-17T16:50:50.450Z,971.734
2019-05-17T16:53:06.513Z,971.742
2019-05-17T16:54:49.651Z,971.757
2019-05-17T16:56:49.691Z,971.761
2019-05-17T16:58:49.783Z,971.746
2019-05-17T17:00:49.835Z,971.731
2019-05-17T17:02:49.867Z,971.715
2019-05-17T17:04:50.135Z,971.732
2019-05-17T17:06:50.315Z,971.732
2019-05-17T17:08:50.350Z,971.753
2019-05-17T17:10:50.437Z,971.753
2019-05-17T17:12:50.400Z,971.763
2019-05-17T17:14:50.340Z,971.763
2019-05-17T17:16:50.553Z,971.749
2019-05-17T17:18:50.591Z,971.765
2019-05-17T17:20:50.545Z,971.762
2019-05-17T17:22:49.713Z,971.759
2019-05-17T17:24:49.760Z,971.747
2019-05-17T17:26:49.945Z,971.751
2019-05-17T17:28:49.965Z,971.750
2019-05-17T17:30:50.105Z,971.781
2019-05-17T17:32:50.158Z,971.779
2019-05-17T17:34:50.534Z,971.790
2019-05-17T17:36:49.635Z,971.772
2019-05-17T17:38:49.692Z,971.779
2019-05-17T17:40:49.737Z,971.766
2019-05-17T17:42:49.985Z,971.768
2019-05-17T17:44:49.949Z,971.777
2019-05-17T17:46:50.040Z,971.774
2019-05-17T17:48:50.043Z,971.763
2019-05-17T17:50:50.119Z,971.759
2019-05-17T17:52:50.241Z,971.747
2019-05-17T17:54:50.310Z,971.757
2019-05-17T17:56:50.488Z,971.764
2019-05-17T17:58:50.590Z,971.743
2019-05-17T18:00:50.606Z,971.733
2019-05-17T18:02:49.767Z,971.725
2019-05-17T18:04:50.253Z,971.701
2019-05-17T18:06:49.680Z,971.688
2019-05-17T18:08:49.722Z,971.685
2019-05-17T18:10:49.832Z,971.673
2019-05-17T18:12:49.902Z,971.661
2019-05-17T18:14:49.931Z,971.675
2019-05-17T18:16:50.130Z,971.675
2019-05-17T18:18:50.110Z,971.679
2019-05-17T18:20:50.213Z,971.678
2019-05-17T18:22:50.285Z,971.682
2019-05-17T18:24:50.239Z,971.688
2019-05-17T18:26:50.512Z,971.702
2019-05-17T18:28:50.571Z,971.696
2019-05-17T18:30:50.626Z,971.731
2019-05-17T18:32:49.735Z,971.752
2019-05-17T18:34:50.208Z,971.802
2019-05-17T18:36:50.370Z,971.837
2019-05-17T18:38:50.336Z,971.853
2019-05-17T18:40:50.381Z,971.846
2019-05-17T18:42:50.423Z,971.858
2019-05-17T18:44:50.574Z,971.851
2019-05-17T18:46:49.791Z,971.888
2019-05-17T18:48:49.851Z,971.931
2019-05-17T18:50:49.865Z,971.949
2019-05-17T18:52:50.082Z,971.963
2019-05-17T18:54:50.294Z,971.958
2019-05-17T18:56:50.550Z,971.966
2019-05-17T18:58:50.597Z,971.987
2019-05-17T19:00:50.505Z,971.996
2019-05-17T19:02:50.534Z,972.051
2019-05-17T19:04:49.898Z,972.080
2019-05-17T19:06:50.106Z,972.100
2019-05-17T19:08:50.073Z,972.100
2019-05-17T19:10:50.139Z,972.098
2019-05-17T19:12:50.176Z,972.102
2019-05-17T19:14:50.115Z,972.131
2019-05-17T19:16:50.313Z,972.168
2019-05-17T19:18:50.388Z,972.170
2019-05-17T19:20:50.366Z,972.203
2019-05-17T19:22:50.435Z,972.216
2019-05-17T19:24:50.457Z,972.258
2019-05-17T19:26:50.741Z,972.268
2019-05-17T19:28:49.899Z,972.279
2019-05-17T19:30:49.899Z,972.290
2019-05-17T19:32:49.915Z,972.306
2019-05-17T19:34:50.176Z,972.356
2019-05-17T19:36:50.327Z,972.383
2019-05-17T19:38:50.381Z,972.406
2019-05-17T19:40:50.366Z,972.436
2019-05-17T19:42:50.358Z,972.461
2019-05-17T19:44:59.777Z,972.494
2019-05-17T19:46:49.993Z,972.503
2019-05-17T19:48:50.116Z,972.543
2019-05-17T19:50:50.170Z,972.557
2019-05-17T19:52:50.229Z,972.556
2019-05-17T19:54:50.262Z,972.576
2019-05-17T19:56:50.504Z,972.591
2019-05-17T19:58:50.538Z,972.602
2019-05-17T20:00:50.499Z,972.592
2019-05-17T20:02:50.603Z,972.604
2019-05-17T20:04:49.949Z,972.608
2019-05-17T20:06:50.093Z,972.602
2019-05-17T20:08:50.115Z,972.606
2019-05-17T20:10:52.415Z,972.620
2019-05-17T20:12:50.459Z,972.637
2019-05-17T20:14:50.463Z,972.626
2019-05-17T20:16:49.697Z,972.620
2019-05-17T20:18:49.775Z,972.625
2019-05-17T20:20:49.749Z,972.625
2019-05-17T20:22:49.935Z,972.623
2019-05-17T20:24:49.898Z,972.616
2019-05-17T20:26:50.042Z,972.593
2019-05-17T20:28:50.102Z,972.607
2019-05-17T20:30:50.212Z,972.602
2019-05-17T20:32:50.258Z,972.589
2019-05-17T20:34:49.610Z,972.586
2019-05-17T20:36:49.874Z,972.572
2019-05-17T20:38:49.902Z,972.558
2019-05-17T20:40:49.966Z,972.540
2019-05-17T20:42:49.956Z,972.540
2019-05-17T20:44:50.035Z,972.543
2019-05-17T20:46:50.187Z,972.547
2019-05-17T20:48:50.265Z,972.533
2019-05-17T20:50:50.308Z,972.539
2019-05-17T20:52:50.379Z,972.551
2019-05-17T20:54:50.435Z,972.550
2019-05-17T20:56:49.707Z,972.554
2019-05-17T20:58:49.729Z,972.547
2019-05-17T21:00:49.847Z,972.529
2019-05-17T21:02:49.939Z,972.522
2019-05-17T21:04:50.399Z,972.522
2019-05-17T21:06:50.514Z,972.529
2019-05-17T21:08:50.544Z,972.539
2019-05-17T21:10:49.677Z,972.529
2019-05-17T21:12:49.719Z,972.521
2019-05-17T21:14:49.724Z,972.511
2019-05-17T21:16:50.001Z,972.502
2019-05-17T21:18:50.007Z,972.492
2019-05-17T21:20:50.096Z,972.503
2019-05-17T21:22:50.146Z,972.498
2019-05-17T21:24:50.290Z,972.509
2019-05-17T21:26:50.413Z,972.499
2019-05-17T21:28:50.489Z,972.519
2019-05-17T21:30:50.478Z,972.527
2019-05-17T21:32:50.619Z,972.519
2019-05-17T21:34:50.034Z,972.528
2019-05-17T21:36:50.262Z,972.552
2019-05-17T21:38:50.249Z,972.575
2019-05-17T21:40:50.265Z,972.591
2019-05-17T21:42:50.322Z,972.603
2019-05-17T21:44:50.474Z,972.613
2019-05-17T21:47:05.232Z,972.613
2019-05-17T21:48:49.648Z,972.651
2019-05-17T21:50:50.589Z,972.655
2019-05-17T21:52:49.786Z,972.640
2019-05-17T21:54:49.820Z,972.638
2019-05-17T21:56:49.993Z,972.613
2019-05-17T21:58:50.030Z,972.610
2019-05-17T22:00:50.038Z,972.598
2019-05-17T22:02:49.844Z,972.582
2019-05-17T22:04:50.181Z,972.581
2019-05-17T22:06:50.465Z,972.590
2019-05-17T22:08:50.543Z,972.620
2019-05-17T22:10:50.533Z,972.626
2019-05-17T22:12:50.593Z,972.619
2019-05-17T22:14:50.559Z,972.621
2019-05-17T22:16:49.794Z,972.633
2019-05-17T22:18:49.765Z,972.625
2019-05-17T22:20:49.846Z,972.628
2019-05-17T22:22:49.880Z,972.617
2019-05-17T22:24:49.983Z,972.613
2019-05-17T22:26:50.207Z,972.622
2019-05-17T22:28:50.251Z,972.654
2019-05-17T22:30:50.339Z,972.662
2019-05-17T22:32:50.344Z,972.645
2019-05-17T22:34:49.733Z,972.645
2019-05-17T22:36:50.004Z,972.627
2019-05-17T22:38:50.068Z,972.630
2019-05-17T22:40:50.079Z,972.630
2019-05-17T22:42:50.112Z,972.615
2019-05-17T22:44:50.094Z,972.632
2019-05-17T22:46:50.261Z,972.610
2019-05-17T22:48:50.250Z,972.603
2019-05-17T22:50:50.345Z,972.584
2019-05-17T22:52:50.440Z,972.586
2019-05-17T22:54:50.419Z,972.590
2019-05-17T22:56:49.610Z,972.590
2019-05-17T22:58:50.542Z,972.571
2019-05-17T23:00:50.571Z,972.564
2019-05-17T23:02:49.702Z,972.558
2019-05-17T23:04:50.264Z,972.567
2019-05-17T23:06:50.440Z,972.568
2019-05-17T23:08:50.545Z,972.559
2019-05-17T23:10:50.578Z,972.552
2019-05-17T23:12:49.629Z,972.517
2019-05-17T23:14:49.657Z,972.516
2019-05-17T23:16:52.430Z,972.524
2019-05-17T23:18:50.421Z,972.522
2019-05-17T23:20:50.437Z,972.522
2019-05-17T23:22:50.547Z,972.543
2019-05-17T23:24:50.562Z,972.531
2019-05-17T23:26:49.791Z,972.545
2019-05-17T23:28:49.810Z,972.548
2019-05-17T23:30:49.889Z,972.553
2019-05-17T23:32:49.969Z,972.560
2019-05-17T23:34:50.313Z,972.548
2019-05-17T23:36:50.446Z,972.547
2019-05-17T23:38:50.421Z,972.545
2019-05-17T23:40:50.416Z,972.538
2019-05-17T23:42:50.472Z,972.538
2019-05-17T23:44:50.404Z,972.542
2019-05-17T23:46:49.609Z,972.542
2019-05-17T23:48:49.804Z,972.543
2019-05-17T23:50:49.809Z,972.553
2019-05-17T23:52:49.950Z,972.551
2019-05-17T23:54:49.974Z,972.564
2019-05-17T23:56:50.085Z,972.571
2019-05-17T23:58:50.126Z,972.573
